KECG/ECG METAR and TAF weather

Enter ICAO airport designator
Station Type Date Time Source
KECG METAR 2020/01/19 16:54 UTC NOAA

KECG 191654Z 28013KT 10SM FEW027 14/08 A2985 RMK AO2 SLP108 T01390078


Station Type Date Time Source
KECG Decoded METAR 2020/01/19 16:54 UTC NOAA

ELIZABETH CITY C/G REGN AIRPORT , NC, United States (KECG) 36-15N 076-10W 11M
Jan 19, 2020 - 11:54 AM EST / 2020.01.19 1654 UTC
Wind: from the W (280 degrees) at 15 MPH (13 KT):0
Visibility: 10 mile(s):0
Sky conditions: mostly clear
Temperature: 57.0 F (13.9 C)
Dew Point: 46.0 F (7.8 C)
Relative Humidity: 66%
Pressure (altimeter): 29.85 in. Hg (1010 hPa)
ob: KECG 191654Z 28013KT 10SM FEW027 14/08 A2985 RMK AO2 SLP108 T01390078
cycle: 17

Station Type Date Time Source
KECG TAF 2020/01/19 18:24 UTC NOAA

TAF KECG 191720Z 1918/2018 28012G20KT P6SM SCT025
FM192300 33009G15KT P6SM SKC
FM200300 33007KT P6SM SKC

Example: see airport list